sensor_id;sensor_type;location;lat;lon;timestamp;P1;durP1;ratioP1;P2;durP2;ratioP2
9900;SDS011;4989;48.772;9.154;2023-04-24T00:03:53;0.60;;;0.60;;
9900;SDS011;4989;48.772;9.154;2023-04-24T00:08:56;2.60;;;0.80;;
9900;SDS011;4989;48.772;9.154;2023-04-24T00:13:58;0.57;;;0.57;;
9900;SDS011;4989;48.772;9.154;2023-04-24T00:19:00;1.33;;;0.90;;
9900;SDS011;4989;48.772;9.154;2023-04-24T00:24:03;1.23;;;0.60;;
9900;SDS011;4989;48.772;9.154;2023-04-24T00:29:05;1.60;;;0.70;;
9900;SDS011;4989;48.772;9.154;2023-04-24T00:34:07;0.60;;;0.60;;
9900;SDS011;4989;48.772;9.154;2023-04-24T00:39:10;2.23;;;0.80;;
9900;SDS011;4989;48.772;9.154;2023-04-24T00:44:12;0.90;;;0.50;;
9900;SDS011;4989;48.772;9.154;2023-04-24T00:49:14;5.03;;;4.80;;
9900;SDS011;4989;48.772;9.154;2023-04-24T00:54:17;0.40;;;0.40;;
9900;SDS011;4989;48.772;9.154;2023-04-24T00:59:19;172.90;;;84.70;;
9900;SDS011;4989;48.772;9.154;2023-04-24T01:04:22;211.47;;;105.40;;
9900;SDS011;4989;48.772;9.154;2023-04-24T01:09:25;239.07;;;155.13;;
9900;SDS011;4989;48.772;9.154;2023-04-24T01:14:28;2.20;;;0.60;;
9900;SDS011;4989;48.772;9.154;2023-04-24T01:19:30;1.43;;;0.80;;
9900;SDS011;4989;48.772;9.154;2023-04-24T01:24:32;1.00;;;0.60;;
9900;SDS011;4989;48.772;9.154;2023-04-24T01:29:34;0.80;;;0.80;;
9900;SDS011;4989;48.772;9.154;2023-04-24T01:34:37;23.43;;;21.23;;
9900;SDS011;4989;48.772;9.154;2023-04-24T01:39:41;199.30;;;108.93;;
9900;SDS011;4989;48.772;9.154;2023-04-24T01:44:44;0.83;;;0.83;;
9900;SDS011;4989;48.772;9.154;2023-04-24T01:49:48;0.73;;;0.73;;
9900;SDS011;4989;48.772;9.154;2023-04-24T01:54:52;0.67;;;0.67;;
9900;SDS011;4989;48.772;9.154;2023-04-24T01:59:54;183.07;;;154.27;;
9900;SDS011;4989;48.772;9.154;2023-04-24T02:04:57;227.30;;;191.47;;
9900;SDS011;4989;48.772;9.154;2023-04-24T02:09:59;259.80;;;214.97;;
9900;SDS011;4989;48.772;9.154;2023-04-24T02:15:01;263.80;;;218.83;;
9900;SDS011;4989;48.772;9.154;2023-04-24T02:20:05;266.73;;;222.13;;
9900;SDS011;4989;48.772;9.154;2023-04-24T02:25:09;210.70;;;127.90;;
9900;SDS011;4989;48.772;9.154;2023-04-24T02:30:12;140.57;;;91.53;;
9900;SDS011;4989;48.772;9.154;2023-04-24T02:35:14;203.03;;;90.50;;
9900;SDS011;4989;48.772;9.154;2023-04-24T02:40:16;202.43;;;88.83;;
9900;SDS011;4989;48.772;9.154;2023-04-24T02:45:19;203.43;;;91.60;;
9900;SDS011;4989;48.772;9.154;2023-04-24T02:50:21;202.47;;;90.30;;
9900;SDS011;4989;48.772;9.154;2023-04-24T02:55:24;221.40;;;132.53;;
9900;SDS011;4989;48.772;9.154;2023-04-24T03:00:26;248.40;;;185.53;;
9900;SDS011;4989;48.772;9.154;2023-04-24T03:05:28;273.60;;;240.00;;
9900;SDS011;4989;48.772;9.154;2023-04-24T03:10:32;261.40;;;212.10;;
9900;SDS011;4989;48.772;9.154;2023-04-24T03:15:34;263.77;;;208.97;;
9900;SDS011;4989;48.772;9.154;2023-04-24T03:20:36;264.90;;;216.17;;
9900;SDS011;4989;48.772;9.154;2023-04-24T03:25:39;266.87;;;221.17;;
9900;SDS011;4989;48.772;9.154;2023-04-24T03:30:42;215.77;;;120.87;;
9900;SDS011;4989;48.772;9.154;2023-04-24T03:35:46;199.80;;;93.37;;
9900;SDS011;4989;48.772;9.154;2023-04-24T03:40:48;199.83;;;92.63;;
9900;SDS011;4989;48.772;9.154;2023-04-24T03:46:10;241.03;;;166.70;;
9900;SDS011;4989;48.772;9.154;2023-04-24T03:51:18;202.13;;;97.23;;
9900;SDS011;4989;48.772;9.154;2023-04-24T03:56:23;208.37;;;106.37;;
9900;SDS011;4989;48.772;9.154;2023-04-24T04:01:26;251.77;;;204.13;;
9900;SDS011;4989;48.772;9.154;2023-04-24T04:06:36;261.33;;;216.40;;
9900;SDS011;4989;48.772;9.154;2023-04-24T04:11:40;259.60;;;212.63;;
9900;SDS011;4989;48.772;9.154;2023-04-24T04:16:42;216.03;;;123.27;;
9900;SDS011;4989;48.772;9.154;2023-04-24T04:21:45;197.00;;;90.10;;
9900;SDS011;4989;48.772;9.154;2023-04-24T04:27:07;267.83;;;228.67;;
9900;SDS011;4989;48.772;9.154;2023-04-24T04:32:19;199.47;;;94.77;;
9900;SDS011;4989;48.772;9.154;2023-04-24T04:37:21;200.10;;;96.57;;
9900;SDS011;4989;48.772;9.154;2023-04-24T04:42:43;201.13;;;100.23;;
9900;SDS011;4989;48.772;9.154;2023-04-24T04:47:48;195.77;;;89.97;;
9900;SDS011;4989;48.772;9.154;2023-04-24T04:52:50;197.97;;;98.27;;
9900;SDS011;4989;48.772;9.154;2023-04-24T04:58:00;276.67;;;246.93;;
9900;SDS011;4989;48.772;9.154;2023-04-24T05:03:03;292.97;;;262.57;;
9900;SDS011;4989;48.772;9.154;2023-04-24T05:08:20;207.77;;;114.17;;
9900;SDS011;4989;48.772;9.154;2023-04-24T05:13:29;287.67;;;257.43;;
9900;SDS011;4989;48.772;9.154;2023-04-24T05:18:51;201.73;;;103.97;;
9900;SDS011;4989;48.772;9.154;2023-04-24T05:24:00;290.20;;;259.57;;
9900;SDS011;4989;48.772;9.154;2023-04-24T05:29:29;314.73;;;283.53;;
9900;SDS011;4989;48.772;9.154;2023-04-24T05:34:34;310.63;;;279.20;;
9900;SDS011;4989;48.772;9.154;2023-04-24T05:39:37;320.47;;;288.73;;
9900;SDS011;4989;48.772;9.154;2023-04-24T05:44:39;284.03;;;251.07;;
9900;SDS011;4989;48.772;9.154;2023-04-24T05:49:41;229.57;;;144.70;;
9900;SDS011;4989;48.772;9.154;2023-04-24T05:54:44;180.37;;;84.63;;
9900;SDS011;4989;48.772;9.154;2023-04-24T05:59:51;174.43;;;87.73;;
9900;SDS011;4989;48.772;9.154;2023-04-24T06:04:55;223.03;;;183.77;;
9900;SDS011;4989;48.772;9.154;2023-04-24T06:09:59;275.63;;;247.10;;
9900;SDS011;4989;48.772;9.154;2023-04-24T06:15:04;242.53;;;217.80;;
9900;SDS011;4989;48.772;9.154;2023-04-24T06:20:28;39.80;;;19.93;;
9900;SDS011;4989;48.772;9.154;2023-04-24T06:25:31;4.20;;;3.90;;
9900;SDS011;4989;48.772;9.154;2023-04-24T06:30:33;2.50;;;1.00;;
9900;SDS011;4989;48.772;9.154;2023-04-24T06:35:36;1.27;;;1.17;;
9900;SDS011;4989;48.772;9.154;2023-04-24T06:40:39;1.40;;;1.30;;
9900;SDS011;4989;48.772;9.154;2023-04-24T06:45:41;1.10;;;1.10;;
9900;SDS011;4989;48.772;9.154;2023-04-24T06:50:45;2.27;;;1.60;;
9900;SDS011;4989;48.772;9.154;2023-04-24T06:55:48;1.33;;;1.23;;
9900;SDS011;4989;48.772;9.154;2023-04-24T07:00:50;1.20;;;1.20;;
9900;SDS011;4989;48.772;9.154;2023-04-24T07:05:53;1.53;;;1.37;;
9900;SDS011;4989;48.772;9.154;2023-04-24T07:10:56;2.00;;;1.60;;
9900;SDS011;4989;48.772;9.154;2023-04-24T07:15:59;4.53;;;4.07;;
9900;SDS011;4989;48.772;9.154;2023-04-24T07:21:01;3.70;;;1.23;;
9900;SDS011;4989;48.772;9.154;2023-04-24T07:26:04;96.47;;;64.33;;
9900;SDS011;4989;48.772;9.154;2023-04-24T07:31:08;1.33;;;1.23;;
9900;SDS011;4989;48.772;9.154;2023-04-24T07:36:13;8.33;;;5.97;;
9900;SDS011;4989;48.772;9.154;2023-04-24T07:41:20;1.33;;;1.07;;
9900;SDS011;4989;48.772;9.154;2023-04-24T07:46:25;183.80;;;132.40;;
9900;SDS011;4989;48.772;9.154;2023-04-24T07:51:31;355.43;;;322.07;;
9900;SDS011;4989;48.772;9.154;2023-04-24T07:56:40;351.97;;;316.63;;
9900;SDS011;4989;48.772;9.154;2023-04-24T08:01:44;215.77;;;128.83;;
9900;SDS011;4989;48.772;9.154;2023-04-24T08:06:49;194.87;;;102.37;;
9900;SDS011;4989;48.772;9.154;2023-04-24T08:11:51;195.27;;;107.00;;
9900;SDS011;4989;48.772;9.154;2023-04-24T08:16:54;201.30;;;109.70;;
9900;SDS011;4989;48.772;9.154;2023-04-24T08:22:01;295.00;;;263.07;;
9900;SDS011;4989;48.772;9.154;2023-04-24T08:27:05;304.70;;;271.50;;
9900;SDS011;4989;48.772;9.154;2023-04-24T08:32:07;309.60;;;263.83;;
9900;SDS011;4989;48.772;9.154;2023-04-24T08:37:10;322.33;;;256.20;;
9900;SDS011;4989;48.772;9.154;2023-04-24T08:42:12;280.00;;;198.60;;
9900;SDS011;4989;48.772;9.154;2023-04-24T08:47:16;208.20;;;115.47;;
9900;SDS011;4989;48.772;9.154;2023-04-24T08:52:19;208.57;;;113.20;;
9900;SDS011;4989;48.772;9.154;2023-04-24T08:57:23;247.30;;;130.27;;
9900;SDS011;4989;48.772;9.154;2023-04-24T09:02:28;329.37;;;226.33;;
9900;SDS011;4989;48.772;9.154;2023-04-24T09:07:31;366.77;;;273.93;;
9900;SDS011;4989;48.772;9.154;2023-04-24T09:12:37;385.20;;;290.53;;
9900;SDS011;4989;48.772;9.154;2023-04-24T09:17:39;381.67;;;294.93;;
9900;SDS011;4989;48.772;9.154;2023-04-24T09:22:42;401.23;;;294.27;;
9900;SDS011;4989;48.772;9.154;2023-04-24T09:27:46;193.50;;;110.97;;
9900;SDS011;4989;48.772;9.154;2023-04-24T09:32:48;244.23;;;128.97;;
9900;SDS011;4989;48.772;9.154;2023-04-24T09:37:51;237.23;;;118.43;;
9900;SDS011;4989;48.772;9.154;2023-04-24T09:48:03;355.80;;;275.33;;
9900;SDS011;4989;48.772;9.154;2023-04-24T09:53:06;293.23;;;264.03;;
9900;SDS011;4989;48.772;9.154;2023-04-24T09:58:12;307.17;;;264.30;;
9900;SDS011;4989;48.772;9.154;2023-04-24T10:03:14;207.23;;;145.60;;
9900;SDS011;4989;48.772;9.154;2023-04-24T10:08:19;185.23;;;128.87;;
9900;SDS011;4989;48.772;9.154;2023-04-24T10:13:22;131.00;;;93.17;;
9900;SDS011;4989;48.772;9.154;2023-04-24T10:18:25;202.30;;;110.83;;
9900;SDS011;4989;48.772;9.154;2023-04-24T10:23:29;345.10;;;230.63;;
9900;SDS011;4989;48.772;9.154;2023-04-24T10:28:32;18.80;;;14.83;;
9900;SDS011;4989;48.772;9.154;2023-04-24T10:33:38;1.77;;;1.20;;
9900;SDS011;4989;48.772;9.154;2023-04-24T10:38:45;1.70;;;1.40;;
9900;SDS011;4989;48.772;9.154;2023-04-24T10:44:06;1.20;;;1.10;;
9900;SDS011;4989;48.772;9.154;2023-04-24T10:49:13;1.00;;;1.00;;
9900;SDS011;4989;48.772;9.154;2023-04-24T10:54:26;0.97;;;0.97;;
9900;SDS011;4989;48.772;9.154;2023-04-24T10:59:43;268.90;;;192.40;;
9900;SDS011;4989;48.772;9.154;2023-04-24T11:04:47;277.37;;;132.50;;
9900;SDS011;4989;48.772;9.154;2023-04-24T11:09:58;223.83;;;95.13;;
9900;SDS011;4989;48.772;9.154;2023-04-24T11:15:02;352.37;;;259.80;;
9900;SDS011;4989;48.772;9.154;2023-04-24T11:20:09;251.03;;;226.50;;
9900;SDS011;4989;48.772;9.154;2023-04-24T11:25:30;175.87;;;156.63;;
9900;SDS011;4989;48.772;9.154;2023-04-24T11:30:33;369.93;;;268.77;;
9900;SDS011;4989;48.772;9.154;2023-04-24T11:35:39;1.07;;;1.07;;
9900;SDS011;4989;48.772;9.154;2023-04-24T11:40:42;1.10;;;1.10;;
9900;SDS011;4989;48.772;9.154;2023-04-24T11:45:47;1.00;;;1.00;;
9900;SDS011;4989;48.772;9.154;2023-04-24T11:50:50;1.20;;;1.10;;
9900;SDS011;4989;48.772;9.154;2023-04-24T11:55:52;1.20;;;1.20;;
9900;SDS011;4989;48.772;9.154;2023-04-24T12:00:55;1.23;;;1.13;;
9900;SDS011;4989;48.772;9.154;2023-04-24T12:06:09;248.63;;;227.40;;
9900;SDS011;4989;48.772;9.154;2023-04-24T12:11:14;167.30;;;152.13;;
9900;SDS011;4989;48.772;9.154;2023-04-24T12:16:19;80.23;;;72.13;;
9900;SDS011;4989;48.772;9.154;2023-04-24T12:21:22;70.93;;;63.93;;
9900;SDS011;4989;48.772;9.154;2023-04-24T12:26:26;96.90;;;89.57;;
9900;SDS011;4989;48.772;9.154;2023-04-24T12:31:29;189.23;;;176.90;;
9900;SDS011;4989;48.772;9.154;2023-04-24T12:36:35;228.03;;;214.13;;
9900;SDS011;4989;48.772;9.154;2023-04-24T12:41:37;220.97;;;205.13;;
9900;SDS011;4989;48.772;9.154;2023-04-24T12:46:39;240.80;;;223.83;;
9900;SDS011;4989;48.772;9.154;2023-04-24T12:51:41;249.47;;;232.77;;
9900;SDS011;4989;48.772;9.154;2023-04-24T12:56:44;151.10;;;141.20;;
9900;SDS011;4989;48.772;9.154;2023-04-24T13:01:46;67.63;;;62.40;;
9900;SDS011;4989;48.772;9.154;2023-04-24T13:06:48;75.63;;;69.20;;
9900;SDS011;4989;48.772;9.154;2023-04-24T13:11:50;62.27;;;57.43;;
9900;SDS011;4989;48.772;9.154;2023-04-24T13:16:52;72.00;;;66.40;;
9900;SDS011;4989;48.772;9.154;2023-04-24T13:21:55;64.77;;;58.67;;
9900;SDS011;4989;48.772;9.154;2023-04-24T13:26:59;200.67;;;187.30;;
9900;SDS011;4989;48.772;9.154;2023-04-24T13:32:02;229.47;;;215.20;;
9900;SDS011;4989;48.772;9.154;2023-04-24T13:37:04;210.27;;;196.57;;
9900;SDS011;4989;48.772;9.154;2023-04-24T13:42:08;195.83;;;184.07;;
9900;SDS011;4989;48.772;9.154;2023-04-24T13:47:10;177.17;;;166.90;;
9900;SDS011;4989;48.772;9.154;2023-04-24T13:52:13;111.27;;;104.93;;
9900;SDS011;4989;48.772;9.154;2023-04-24T13:57:15;88.23;;;81.90;;
9900;SDS011;4989;48.772;9.154;2023-04-24T14:02:18;66.97;;;60.03;;
9900;SDS011;4989;48.772;9.154;2023-04-24T14:07:20;64.77;;;57.83;;
9900;SDS011;4989;48.772;9.154;2023-04-24T14:12:23;64.03;;;57.50;;
9900;SDS011;4989;48.772;9.154;2023-04-24T14:17:25;70.70;;;61.97;;
9900;SDS011;4989;48.772;9.154;2023-04-24T14:22:28;115.67;;;105.77;;
9900;SDS011;4989;48.772;9.154;2023-04-24T14:27:30;175.83;;;160.97;;
9900;SDS011;4989;48.772;9.154;2023-04-24T14:32:38;238.90;;;220.13;;
9900;SDS011;4989;48.772;9.154;2023-04-24T14:37:40;216.80;;;200.40;;
9900;SDS011;4989;48.772;9.154;2023-04-24T14:42:44;133.07;;;119.30;;
9900;SDS011;4989;48.772;9.154;2023-04-24T14:47:47;81.00;;;69.23;;
9900;SDS011;4989;48.772;9.154;2023-04-24T14:52:49;74.40;;;62.87;;
9900;SDS011;4989;48.772;9.154;2023-04-24T14:57:51;99.70;;;73.57;;
9900;SDS011;4989;48.772;9.154;2023-04-24T15:02:54;94.40;;;67.33;;
9900;SDS011;4989;48.772;9.154;2023-04-24T15:07:57;125.03;;;107.20;;
9900;SDS011;4989;48.772;9.154;2023-04-24T15:12:59;188.47;;;172.87;;
9900;SDS011;4989;48.772;9.154;2023-04-24T15:18:01;197.83;;;183.77;;
9900;SDS011;4989;48.772;9.154;2023-04-24T15:23:09;198.40;;;186.20;;
9900;SDS011;4989;48.772;9.154;2023-04-24T15:28:12;135.47;;;128.27;;
9900;SDS011;4989;48.772;9.154;2023-04-24T15:33:15;82.33;;;76.17;;
9900;SDS011;4989;48.772;9.154;2023-04-24T15:38:17;64.37;;;58.70;;
9900;SDS011;4989;48.772;9.154;2023-04-24T15:43:19;61.07;;;55.63;;
9900;SDS011;4989;48.772;9.154;2023-04-24T15:48:22;64.30;;;58.40;;
9900;SDS011;4989;48.772;9.154;2023-04-24T15:53:24;58.53;;;53.23;;
9900;SDS011;4989;48.772;9.154;2023-04-24T15:58:26;95.40;;;88.00;;
9900;SDS011;4989;48.772;9.154;2023-04-24T16:03:29;177.40;;;166.30;;
9900;SDS011;4989;48.772;9.154;2023-04-24T16:08:31;195.73;;;182.83;;
9900;SDS011;4989;48.772;9.154;2023-04-24T16:13:33;216.20;;;201.43;;
9900;SDS011;4989;48.772;9.154;2023-04-24T16:18:36;206.57;;;195.27;;
9900;SDS011;4989;48.772;9.154;2023-04-24T16:23:38;216.17;;;204.77;;
9900;SDS011;4989;48.772;9.154;2023-04-24T16:28:40;209.67;;;197.57;;
9900;SDS011;4989;48.772;9.154;2023-04-24T16:33:43;143.50;;;133.17;;
9900;SDS011;4989;48.772;9.154;2023-04-24T16:38:45;90.93;;;82.77;;
9900;SDS011;4989;48.772;9.154;2023-04-24T16:43:53;66.70;;;59.83;;
9900;SDS011;4989;48.772;9.154;2023-04-24T16:48:56;67.63;;;63.17;;
9900;SDS011;4989;48.772;9.154;2023-04-24T16:53:59;170.03;;;160.83;;
9900;SDS011;4989;48.772;9.154;2023-04-24T16:59:01;240.70;;;224.33;;
9900;SDS011;4989;48.772;9.154;2023-04-24T17:04:03;210.37;;;197.07;;
9900;SDS011;4989;48.772;9.154;2023-04-24T17:09:06;242.50;;;227.17;;
9900;SDS011;4989;48.772;9.154;2023-04-24T17:14:08;241.50;;;223.70;;
9900;SDS011;4989;48.772;9.154;2023-04-24T17:19:11;216.97;;;202.77;;
9900;SDS011;4989;48.772;9.154;2023-04-24T17:24:13;164.37;;;153.17;;
9900;SDS011;4989;48.772;9.154;2023-04-24T17:29:15;107.57;;;96.97;;
9900;SDS011;4989;48.772;9.154;2023-04-24T17:34:17;61.60;;;56.53;;
9900;SDS011;4989;48.772;9.154;2023-04-24T17:39:20;60.20;;;55.40;;
9900;SDS011;4989;48.772;9.154;2023-04-24T17:44:22;55.80;;;51.37;;
9900;SDS011;4989;48.772;9.154;2023-04-24T17:49:24;49.53;;;45.73;;
9900;SDS011;4989;48.772;9.154;2023-04-24T17:54:27;97.23;;;90.97;;
9900;SDS011;4989;48.772;9.154;2023-04-24T17:59:29;197.17;;;184.43;;
9900;SDS011;4989;48.772;9.154;2023-04-24T18:04:31;211.07;;;195.63;;
9900;SDS011;4989;48.772;9.154;2023-04-24T18:09:34;225.17;;;209.10;;
9900;SDS011;4989;48.772;9.154;2023-04-24T18:14:36;181.80;;;173.10;;
9900;SDS011;4989;48.772;9.154;2023-04-24T18:19:38;176.10;;;166.77;;
9900;SDS011;4989;48.772;9.154;2023-04-24T18:24:41;133.17;;;126.37;;
9900;SDS011;4989;48.772;9.154;2023-04-24T18:29:43;130.80;;;123.90;;
9900;SDS011;4989;48.772;9.154;2023-04-24T18:34:45;75.17;;;69.60;;
9900;SDS011;4989;48.772;9.154;2023-04-24T18:39:47;57.07;;;52.47;;
9900;SDS011;4989;48.772;9.154;2023-04-24T18:44:51;66.87;;;60.97;;
9900;SDS011;4989;48.772;9.154;2023-04-24T18:49:53;65.07;;;59.73;;
9900;SDS011;4989;48.772;9.154;2023-04-24T18:54:56;72.03;;;66.30;;
9900;SDS011;4989;48.772;9.154;2023-04-24T18:59:58;175.17;;;162.90;;
9900;SDS011;4989;48.772;9.154;2023-04-24T19:05:01;207.40;;;193.67;;
9900;SDS011;4989;48.772;9.154;2023-04-24T19:10:04;207.23;;;193.90;;
9900;SDS011;4989;48.772;9.154;2023-04-24T19:15:07;207.73;;;195.90;;
9900;SDS011;4989;48.772;9.154;2023-04-24T19:20:13;158.53;;;149.63;;
9900;SDS011;4989;48.772;9.154;2023-04-24T19:25:15;78.80;;;73.10;;
9900;SDS011;4989;48.772;9.154;2023-04-24T19:30:17;65.00;;;60.03;;
9900;SDS011;4989;48.772;9.154;2023-04-24T19:35:20;59.47;;;54.60;;
9900;SDS011;4989;48.772;9.154;2023-04-24T19:40:22;52.43;;;48.33;;
9900;SDS011;4989;48.772;9.154;2023-04-24T19:45:24;49.37;;;45.77;;
9900;SDS011;4989;48.772;9.154;2023-04-24T19:50:27;84.63;;;79.13;;
9900;SDS011;4989;48.772;9.154;2023-04-24T19:55:29;160.83;;;153.20;;
9900;SDS011;4989;48.772;9.154;2023-04-24T20:00:31;177.97;;;169.97;;
9900;SDS011;4989;48.772;9.154;2023-04-24T20:05:35;147.07;;;140.13;;
9900;SDS011;4989;48.772;9.154;2023-04-24T20:10:37;142.93;;;136.00;;
9900;SDS011;4989;48.772;9.154;2023-04-24T20:15:40;135.40;;;128.50;;
9900;SDS011;4989;48.772;9.154;2023-04-24T20:20:42;123.37;;;117.17;;
9900;SDS011;4989;48.772;9.154;2023-04-24T20:25:47;51.73;;;47.83;;
9900;SDS011;4989;48.772;9.154;2023-04-24T20:30:49;66.67;;;59.83;;
9900;SDS011;4989;48.772;9.154;2023-04-24T20:35:52;50.73;;;46.80;;
9900;SDS011;4989;48.772;9.154;2023-04-24T20:40:54;40.80;;;37.90;;
9900;SDS011;4989;48.772;9.154;2023-04-24T20:45:58;136.23;;;128.90;;
9900;SDS011;4989;48.772;9.154;2023-04-24T20:51:01;175.27;;;165.53;;
9900;SDS011;4989;48.772;9.154;2023-04-24T20:56:03;205.00;;;192.53;;
9900;SDS011;4989;48.772;9.154;2023-04-24T21:01:06;189.67;;;179.37;;
9900;SDS011;4989;48.772;9.154;2023-04-24T21:06:09;161.90;;;152.67;;
9900;SDS011;4989;48.772;9.154;2023-04-24T21:11:11;197.80;;;185.93;;
9900;SDS011;4989;48.772;9.154;2023-04-24T21:16:14;96.20;;;90.97;;
9900;SDS011;4989;48.772;9.154;2023-04-24T21:21:16;67.00;;;62.60;;
9900;SDS011;4989;48.772;9.154;2023-04-24T21:26:18;52.90;;;49.00;;
9900;SDS011;4989;48.772;9.154;2023-04-24T21:31:22;55.70;;;51.70;;
9900;SDS011;4989;48.772;9.154;2023-04-24T21:36:24;52.43;;;48.13;;
9900;SDS011;4989;48.772;9.154;2023-04-24T21:41:27;84.63;;;78.17;;
9900;SDS011;4989;48.772;9.154;2023-04-24T21:46:29;139.57;;;129.27;;
9900;SDS011;4989;48.772;9.154;2023-04-24T21:51:31;153.10;;;145.87;;
9900;SDS011;4989;48.772;9.154;2023-04-24T21:56:34;95.60;;;91.60;;
9900;SDS011;4989;48.772;9.154;2023-04-24T22:01:36;92.67;;;88.47;;
9900;SDS011;4989;48.772;9.154;2023-04-24T22:06:39;94.00;;;89.87;;
9900;SDS011;4989;48.772;9.154;2023-04-24T22:11:42;91.77;;;87.40;;
9900;SDS011;4989;48.772;9.154;2023-04-24T22:16:44;55.90;;;53.00;;
9900;SDS011;4989;48.772;9.154;2023-04-24T22:21:48;27.13;;;25.30;;
9900;SDS011;4989;48.772;9.154;2023-04-24T22:26:50;33.35;;;31.20;;
9900;SDS011;4989;48.772;9.154;2023-04-24T22:31:53;29.40;;;27.40;;
9900;SDS011;4989;48.772;9.154;2023-04-24T22:36:57;45.37;;;42.90;;
9900;SDS011;4989;48.772;9.154;2023-04-24T22:42:00;89.30;;;85.50;;
9900;SDS011;4989;48.772;9.154;2023-04-24T22:47:03;92.70;;;88.90;;
9900;SDS011;4989;48.772;9.154;2023-04-24T22:52:08;84.33;;;80.73;;
9900;SDS011;4989;48.772;9.154;2023-04-24T22:57:11;79.27;;;75.97;;
9900;SDS011;4989;48.772;9.154;2023-04-24T23:02:14;56.00;;;53.57;;
9900;SDS011;4989;48.772;9.154;2023-04-24T23:07:17;26.03;;;24.43;;
9900;SDS011;4989;48.772;9.154;2023-04-24T23:12:19;20.53;;;19.43;;
9900;SDS011;4989;48.772;9.154;2023-04-24T23:17:21;20.50;;;19.37;;
9900;SDS011;4989;48.772;9.154;2023-04-24T23:22:24;20.13;;;19.03;;
9900;SDS011;4989;48.772;9.154;2023-04-24T23:27:27;36.57;;;35.07;;
9900;SDS011;4989;48.772;9.154;2023-04-24T23:32:30;57.30;;;55.07;;
9900;SDS011;4989;48.772;9.154;2023-04-24T23:37:32;65.63;;;63.27;;
9900;SDS011;4989;48.772;9.154;2023-04-24T23:42:35;73.90;;;71.13;;
9900;SDS011;4989;48.772;9.154;2023-04-24T23:47:37;69.97;;;67.30;;
9900;SDS011;4989;48.772;9.154;2023-04-24T23:52:39;67.57;;;65.03;;
9900;SDS011;4989;48.772;9.154;2023-04-24T23:57:42;68.20;;;65.57;;
